createdAt,value
2018-03-30T00:09:47.300Z,10.8
2018-03-30T00:19:45.953Z,10.6
2018-03-30T00:29:45.455Z,10.6
2018-03-30T00:39:44.333Z,10.6
2018-03-30T00:49:44.043Z,10.5
2018-03-30T00:59:42.773Z,10.5
2018-03-30T01:09:42.120Z,10.4
2018-03-30T01:19:41.409Z,10.4
2018-03-30T01:29:40.529Z,10.4
2018-03-30T01:39:39.486Z,10.3
2018-03-30T01:49:38.645Z,10.2
2018-03-30T01:59:38.024Z,10.1
2018-03-30T02:09:37.384Z,10.1
2018-03-30T02:19:36.242Z,10.1
2018-03-30T02:29:35.768Z,10.1
2018-03-30T02:39:34.768Z,10.1
2018-03-30T02:49:33.919Z,10.1
2018-03-30T02:59:33.282Z,9.9
2018-03-30T03:09:32.528Z,9.9
2018-03-30T03:19:31.487Z,9.9
2018-03-30T03:29:30.911Z,9.8
2018-03-30T03:39:30.166Z,9.8
2018-03-30T03:49:29.124Z,9.8
2018-03-30T03:59:28.405Z,9.8
2018-03-30T04:09:27.474Z,9.7
2018-03-30T04:19:26.698Z,9.6
2018-03-30T04:29:26.451Z,9.7
2018-03-30T04:39:25.203Z,8.9
2018-03-30T04:49:24.457Z,9
2018-03-30T04:59:23.634Z,9.8
2018-03-30T05:09:22.814Z,10.6
2018-03-30T05:19:22.023Z,11.5
2018-03-30T05:29:21.682Z,12.4
2018-03-30T05:39:20.282Z,13.5
2018-03-30T05:49:19.994Z,14.6
2018-03-30T05:59:18.936Z,15.5
2018-03-30T06:09:18.082Z,16.5
2018-03-30T06:19:17.203Z,17.1
2018-03-30T06:29:16.742Z,18.2
2018-03-30T06:39:15.899Z,19.4
2018-03-30T06:49:14.757Z,19.8
2018-03-30T06:59:14.054Z,21.2
2018-03-30T07:09:13.567Z,22.8
2018-03-30T07:19:12.644Z,23.3
2018-03-30T07:29:11.945Z,24.8
2018-03-30T07:39:11.021Z,25.2
2018-03-30T07:49:10.935Z,25.1
2018-03-30T07:59:09.559Z,26.1
2018-03-30T08:09:08.427Z,26.1
2018-03-30T08:19:07.561Z,26.6
2018-03-30T08:29:07.153Z,26.1
2018-03-30T08:39:06.304Z,26.2
2018-03-30T08:49:05.242Z,26
2018-03-30T08:59:04.943Z,25.5
2018-03-30T09:09:03.767Z,26
2018-03-30T09:19:02.806Z,25.9
2018-03-30T09:29:02.294Z,25.3
2018-03-30T09:39:01.225Z,25.4
2018-03-30T09:49:00.565Z,25.4
2018-03-30T09:58:59.577Z,25.6
2018-03-30T10:08:59.173Z,24.3
2018-03-30T10:18:58.080Z,22.9
2018-03-30T10:28:57.544Z,23.1
2018-03-30T10:38:56.310Z,23.1
2018-03-30T10:48:55.867Z,22.7
2018-03-30T10:58:54.833Z,21.6
2018-03-30T11:08:54.325Z,20.8
2018-03-30T11:18:53.189Z,20.7
2018-03-30T11:28:53.140Z,20.4
2018-03-30T11:38:51.976Z,20.4
2018-03-30T11:48:50.784Z,20.3
2018-03-30T11:58:50.512Z,20.3
2018-03-30T12:08:49.469Z,20.1
2018-03-30T12:18:48.674Z,19.8
2018-03-30T12:28:48.203Z,19.8
2018-03-30T12:38:47.167Z,19.6
2018-03-30T12:48:45.984Z,19.7
2018-03-30T12:58:45.473Z,19.8
2018-03-30T13:08:44.455Z,19.8
2018-03-30T13:18:43.771Z,19.8
2018-03-30T13:28:43.400Z,19.8
2018-03-30T13:38:42.337Z,19.8
2018-03-30T13:48:41.535Z,19.9
2018-03-30T13:58:40.772Z,19.9
2018-03-30T14:08:39.841Z,19.8
2018-03-30T14:18:39.218Z,19.8
2018-03-30T14:28:38.405Z,19.9
2018-03-30T14:38:37.310Z,20
2018-03-30T14:48:36.891Z,19.9
2018-03-30T14:58:35.674Z,19.8
2018-03-30T15:08:35.158Z,19.6
2018-03-30T15:18:34.463Z,19.4
2018-03-30T15:28:33.612Z,19.3
2018-03-30T15:38:32.623Z,19.2
2018-03-30T15:48:31.658Z,18.8
2018-03-30T15:58:30.813Z,18.4
2018-03-30T16:08:30.321Z,18.1
2018-03-30T16:18:29.620Z,17.9
2018-03-30T16:28:28.484Z,17.8
2018-03-30T16:38:27.719Z,17.7
2018-03-30T16:48:27.182Z,17.5
2018-03-30T16:58:26.407Z,17.4
2018-03-30T17:08:25.325Z,17.3
2018-03-30T17:18:24.535Z,17.2
2018-03-30T17:28:23.702Z,17.1
2018-03-30T17:38:22.886Z,17.1
2018-03-30T17:48:22.447Z,17.1
2018-03-30T17:58:21.687Z,17.1
2018-03-30T18:08:20.910Z,17.1
2018-03-30T18:18:20.087Z,16.8
2018-03-30T18:28:19.098Z,16.4
2018-03-30T18:38:18.152Z,16.1
2018-03-30T18:48:17.590Z,15.9
2018-03-30T18:58:16.526Z,15.5
2018-03-30T19:08:15.788Z,15.2
2018-03-30T19:18:15.152Z,14.9
2018-03-30T19:28:14.489Z,14.6
2018-03-30T19:38:13.294Z,14.4
2018-03-30T19:48:13.132Z,14.3
2018-03-30T19:58:11.776Z,13.9
2018-03-30T20:08:11.350Z,13.8
2018-03-30T20:18:10.627Z,13.6
2018-03-30T20:28:09.391Z,13.4
2018-03-30T20:38:08.985Z,13.3
2018-03-30T20:48:07.801Z,13.3
2018-03-30T20:58:07.713Z,13.1
2018-03-30T21:08:06.233Z,13
2018-03-30T21:18:05.379Z,12.9
2018-03-30T21:28:04.661Z,12.9
2018-03-30T21:38:04.140Z,12.9
2018-03-30T21:48:03.166Z,12.8
2018-03-30T21:58:02.183Z,12.6
2018-03-30T22:08:01.998Z,12.3
2018-03-30T22:18:01.012Z,12.3
2018-03-30T22:28:00.312Z,12.3
2018-03-30T22:37:59.358Z,12.2
2018-03-30T22:47:58.233Z,12.1
2018-03-30T22:57:57.525Z,12.1
2018-03-30T23:07:56.790Z,12.1
2018-03-30T23:17:56.469Z,12
2018-03-30T23:27:55.497Z,11.9
2018-03-30T23:37:54.449Z,11.9
2018-03-30T23:47:53.426Z,11.8
2018-03-30T23:57:52.798Z,11.7
